<?xml version="1.0" encoding="UTF-8" standalone="no" ?>
<gpx xmlns="http://www.topografix.com/GPX/1/1" xmlns:xsi="http://www.w3.org/2001/XMLSchema-instance" xsi:schemaLocation="http://www.topografix.com/GPX/1/1 http://www.topografix.com/GPX/1/1/gpx.xsd" version="1.1" creator="VisuGPX - https://www.visugpx.com">
  <metadata>
    <name>Rando à Rodelle</name>
    <desc><![CDATA[superbe.....]]></desc>
  </metadata>
  <trk>
    <name><![CDATA[Rando à Rodelle_1]]></name>
    <trkseg>
      <trkpt lat="44.48895" lon="2.62787">
        <ele>440</ele>
        <time>2022-04-26T12:19:22Z</time>
      </trkpt>
      <trkpt lat="44.48902" lon="2.62781">
        <ele>439.8</ele>
        <time>2022-04-26T12:19:33Z</time>
      </trkpt>
      <trkpt lat="44.48906" lon="2.62774">
        <ele>439.6</ele>
        <time>2022-04-26T12:19:39Z</time>
      </trkpt>
      <trkpt lat="44.48908" lon="2.62768">
        <ele>439.6</ele>
        <time>2022-04-26T12:19:44Z</time>
      </trkpt>
      <trkpt lat="44.48918" lon="2.62753">
        <ele>439</ele>
        <time>2022-04-26T12:19:59Z</time>
      </trkpt>
      <trkpt lat="44.4892" lon="2.62749">
        <ele>438.6</ele>
        <time>2022-04-26T12:20:05Z</time>
      </trkpt>
      <trkpt lat="44.48918" lon="2.62744">
        <ele>438.6</ele>
        <time>2022-04-26T12:20:10Z</time>
      </trkpt>
      <trkpt lat="44.48916" lon="2.62741">
        <ele>437.4</ele>
        <time>2022-04-26T12:20:16Z</time>
      </trkpt>
      <trkpt lat="44.48916" lon="2.62735">
        <ele>436.4</ele>
        <time>2022-04-26T12:20:23Z</time>
      </trkpt>
      <trkpt lat="44.48916" lon="2.62735">
        <ele>436.2</ele>
        <time>2022-04-26T12:20:24Z</time>
      </trkpt>
      <trkpt lat="44.48916" lon="2.62731">
        <ele>435.4</ele>
        <time>2022-04-26T12:20:30Z</time>
      </trkpt>
      <trkpt lat="44.48917" lon="2.6273">
        <ele>435</ele>
        <time>2022-04-26T12:20:34Z</time>
      </trkpt>
      <trkpt lat="44.48915" lon="2.62728">
        <ele>435.8</ele>
        <time>2022-04-26T12:20:46Z</time>
      </trkpt>
      <trkpt lat="44.48915" lon="2.62729">
        <ele>434.8</ele>
        <time>2022-04-26T12:21:04Z</time>
      </trkpt>
      <trkpt lat="44.48923" lon="2.62728">
        <ele>435.2</ele>
        <time>2022-04-26T12:21:15Z</time>
      </trkpt>
      <trkpt lat="44.48932" lon="2.6273">
        <ele>435.4</ele>
        <time>2022-04-26T12:21:24Z</time>
      </trkpt>
      <trkpt lat="44.48937" lon="2.6273">
        <ele>435.6</ele>
        <time>2022-04-26T12:21:29Z</time>
      </trkpt>
      <trkpt lat="44.48951" lon="2.62726">
        <ele>436.4</ele>
        <time>2022-04-26T12:21:42Z</time>
      </trkpt>
      <trkpt lat="44.48954" lon="2.62725">
        <ele>436.6</ele>
        <time>2022-04-26T12:21:44Z</time>
      </trkpt>
      <trkpt lat="44.48959" lon="2.62724">
        <ele>436.8</ele>
        <time>2022-04-26T12:21:52Z</time>
      </trkpt>
      <trkpt lat="44.48962" lon="2.62724">
        <ele>436.6</ele>
        <time>2022-04-26T12:21:56Z</time>
      </trkpt>
      <trkpt lat="44.48976" lon="2.6272">
        <ele>436.2</ele>
        <time>2022-04-26T12:22:11Z</time>
      </trkpt>
      <trkpt lat="44.48985" lon="2.62715">
        <ele>436</ele>
        <time>2022-04-26T12:22:25Z</time>
      </trkpt>
      <trkpt lat="44.48994" lon="2.62705">
        <ele>436.4</ele>
        <time>2022-04-26T12:22:40Z</time>
      </trkpt>
      <trkpt lat="44.49007" lon="2.62698">
        <ele>437</ele>
        <time>2022-04-26T12:22:55Z</time>
      </trkpt>
      <trkpt lat="44.4901" lon="2.62699">
        <ele>437</ele>
        <time>2022-04-26T12:22:59Z</time>
      </trkpt>
      <trkpt lat="44.49009" lon="2.62698">
        <ele>437</ele>
        <time>2022-04-26T12:23:06Z</time>
      </trkpt>
      <trkpt lat="44.49013" lon="2.62696">
        <ele>437.2</ele>
        <time>2022-04-26T12:23:14Z</time>
      </trkpt>
      <trkpt lat="44.49013" lon="2.62692">
        <ele>437</ele>
        <time>2022-04-26T12:23:26Z</time>
      </trkpt>
      <trkpt lat="44.49018" lon="2.62689">
        <ele>437.2</ele>
        <time>2022-04-26T12:23:34Z</time>
      </trkpt>
      <trkpt lat="44.4902" lon="2.62687">
        <ele>437.4</ele>
        <time>2022-04-26T12:23:38Z</time>
      </trkpt>
      <trkpt lat="44.49025" lon="2.62684">
        <ele>438.2</ele>
        <time>2022-04-26T12:23:47Z</time>
      </trkpt>
      <trkpt lat="44.49029" lon="2.62679">
        <ele>438.6</ele>
        <time>2022-04-26T12:23:56Z</time>
      </trkpt>
      <trkpt lat="44.49031" lon="2.62677">
        <ele>438.6</ele>
        <time>2022-04-26T12:23:59Z</time>
      </trkpt>
      <trkpt lat="44.49035" lon="2.62673">
        <ele>438.8</ele>
        <time>2022-04-26T12:24:04Z</time>
      </trkpt>
      <trkpt lat="44.49042" lon="2.6267">
        <ele>439.2</ele>
        <time>2022-04-26T12:24:13Z</time>
      </trkpt>
      <trkpt lat="44.49046" lon="2.62667">
        <ele>439.6</ele>
        <time>2022-04-26T12:24:18Z</time>
      </trkpt>
      <trkpt lat="44.49053" lon="2.62657">
        <ele>440.6</ele>
        <time>2022-04-26T12:24:28Z</time>
      </trkpt>
      <trkpt lat="44.49053" lon="2.62657">
        <ele>440.6</ele>
        <time>2022-04-26T12:24:29Z</time>
      </trkpt>
      <trkpt lat="44.49061" lon="2.62653">
        <ele>441.4</ele>
        <time>2022-04-26T12:24:40Z</time>
      </trkpt>
      <trkpt lat="44.49068" lon="2.62655">
        <ele>441.4</ele>
        <time>2022-04-26T12:24:48Z</time>
      </trkpt>
      <trkpt lat="44.49069" lon="2.62656">
        <ele>441.4</ele>
        <time>2022-04-26T12:24:51Z</time>
      </trkpt>
      <trkpt lat="44.4907" lon="2.62657">
        <ele>441.6</ele>
        <time>2022-04-26T12:24:53Z</time>
      </trkpt>
      <trkpt lat="44.4907" lon="2.62657">
        <ele>441.4</ele>
        <time>2022-04-26T12:25:00Z</time>
      </trkpt>
      <trkpt lat="44.4907" lon="2.62657">
        <ele>441.4</ele>
        <time>2022-04-26T12:25:16Z</time>
      </trkpt>
      <trkpt lat="44.4907" lon="2.62658">
        <ele>441.6</ele>
        <time>2022-04-26T12:25:36Z</time>
      </trkpt>
      <trkpt lat="44.4907" lon="2.62657">
        <ele>441.6</ele>
        <time>2022-04-26T12:25:39Z</time>
      </trkpt>
      <trkpt lat="44.49069" lon="2.62658">
        <ele>441.2</ele>
        <time>2022-04-26T12:25:55Z</time>
      </trkpt>
      <trkpt lat="44.4907" lon="2.62659">
        <ele>441.2</ele>
        <time>2022-04-26T12:26:14Z</time>
      </trkpt>
      <trkpt lat="44.49071" lon="2.62654">
        <ele>441.2</ele>
        <time>2022-04-26T12:26:28Z</time>
      </trkpt>
      <trkpt lat="44.49072" lon="2.62653">
        <ele>441.2</ele>
        <time>2022-04-26T12:26:39Z</time>
      </trkpt>
      <trkpt lat="44.49072" lon="2.62653">
        <ele>441.2</ele>
        <time>2022-04-26T12:27:01Z</time>
      </trkpt>
      <trkpt lat="44.49072" lon="2.62652">
        <ele>441.2</ele>
        <time>2022-04-26T12:27:18Z</time>
      </trkpt>
      <trkpt lat="44.49077" lon="2.62648">
        <ele>441.2</ele>
        <time>2022-04-26T12:27:27Z</time>
      </trkpt>
      <trkpt lat="44.4908" lon="2.62642">
        <ele>441.2</ele>
        <time>2022-04-26T12:27:32Z</time>
      </trkpt>
      <trkpt lat="44.49083" lon="2.62638">
        <ele>440.6</ele>
        <time>2022-04-26T12:27:35Z</time>
      </trkpt>
      <trkpt lat="44.49087" lon="2.62633">
        <ele>440.4</ele>
        <time>2022-04-26T12:27:39Z</time>
      </trkpt>
      <trkpt lat="44.49093" lon="2.62626">
        <ele>440.2</ele>
        <time>2022-04-26T12:27:46Z</time>
      </trkpt>
      <trkpt lat="44.49094" lon="2.62625">
        <ele>440</ele>
        <time>2022-04-26T12:27:48Z</time>
      </trkpt>
      <trkpt lat="44.49096" lon="2.62622">
        <ele>439.8</ele>
        <time>2022-04-26T12:27:57Z</time>
      </trkpt>
      <trkpt lat="44.49096" lon="2.6262">
        <ele>439.8</ele>
        <time>2022-04-26T12:28:05Z</time>
      </trkpt>
      <trkpt lat="44.49098" lon="2.62618">
        <ele>439.6</ele>
        <time>2022-04-26T12:28:20Z</time>
      </trkpt>
      <trkpt lat="44.49099" lon="2.62617">
        <ele>439.6</ele>
        <time>2022-04-26T12:28:22Z</time>
      </trkpt>
      <trkpt lat="44.491" lon="2.62612">
        <ele>439.2</ele>
        <time>2022-04-26T12:28:27Z</time>
      </trkpt>
      <trkpt lat="44.49105" lon="2.62604">
        <ele>439.4</ele>
        <time>2022-04-26T12:28:34Z</time>
      </trkpt>
      <trkpt lat="44.49115" lon="2.62592">
        <ele>438.4</ele>
        <time>2022-04-26T12:28:49Z</time>
      </trkpt>
      <trkpt lat="44.49124" lon="2.62584">
        <ele>438.8</ele>
        <time>2022-04-26T12:29:02Z</time>
      </trkpt>
      <trkpt lat="44.49124" lon="2.62584">
        <ele>438.6</ele>
        <time>2022-04-26T12:29:05Z</time>
      </trkpt>
      <trkpt lat="44.49132" lon="2.6258">
        <ele>437.8</ele>
        <time>2022-04-26T12:29:16Z</time>
      </trkpt>
      <trkpt lat="44.49137" lon="2.62578">
        <ele>437.4</ele>
        <time>2022-04-26T12:29:21Z</time>
      </trkpt>
      <trkpt lat="44.49137" lon="2.62577">
        <ele>437.4</ele>
        <time>2022-04-26T12:29:22Z</time>
      </trkpt>
      <trkpt lat="44.49142" lon="2.62574">
        <ele>436.8</ele>
        <time>2022-04-26T12:29:28Z</time>
      </trkpt>
      <trkpt lat="44.49146" lon="2.6257">
        <ele>436.2</ele>
        <time>2022-04-26T12:29:33Z</time>
      </trkpt>
      <trkpt lat="44.49151" lon="2.62567">
        <ele>435.8</ele>
        <time>2022-04-26T12:29:37Z</time>
      </trkpt>
      <trkpt lat="44.49155" lon="2.62561">
        <ele>435.2</ele>
        <time>2022-04-26T12:29:43Z</time>
      </trkpt>
      <trkpt lat="44.49161" lon="2.62551">
        <ele>435.2</ele>
        <time>2022-04-26T12:29:53Z</time>
      </trkpt>
      <trkpt lat="44.49174" lon="2.62534">
        <ele>434.8</ele>
        <time>2022-04-26T12:30:11Z</time>
      </trkpt>
      <trkpt lat="44.49175" lon="2.6253">
        <ele>434.8</ele>
        <time>2022-04-26T12:30:14Z</time>
      </trkpt>
      <trkpt lat="44.49186" lon="2.62525">
        <ele>435</ele>
        <time>2022-04-26T12:30:25Z</time>
      </trkpt>
      <trkpt lat="44.49187" lon="2.62524">
        <ele>435</ele>
        <time>2022-04-26T12:30:27Z</time>
      </trkpt>
      <trkpt lat="44.49189" lon="2.62523">
        <ele>435</ele>
        <time>2022-04-26T12:30:30Z</time>
      </trkpt>
      <trkpt lat="44.49194" lon="2.62516">
        <ele>434.8</ele>
        <time>2022-04-26T12:30:42Z</time>
      </trkpt>
      <trkpt lat="44.49197" lon="2.6251">
        <ele>434.2</ele>
        <time>2022-04-26T12:30:50Z</time>
      </trkpt>
      <trkpt lat="44.49199" lon="2.62508">
        <ele>434.2</ele>
        <time>2022-04-26T12:30:52Z</time>
      </trkpt>
      <trkpt lat="44.49203" lon="2.62504">
        <ele>433.6</ele>
        <time>2022-04-26T12:30:57Z</time>
      </trkpt>
      <trkpt lat="44.49205" lon="2.62501">
        <ele>433.2</ele>
        <time>2022-04-26T12:31:00Z</time>
      </trkpt>
      <trkpt lat="44.49215" lon="2.62492">
        <ele>432.2</ele>
        <time>2022-04-26T12:31:12Z</time>
      </trkpt>
      <trkpt lat="44.49217" lon="2.62489">
        <ele>432.2</ele>
        <time>2022-04-26T12:31:15Z</time>
      </trkpt>
      <trkpt lat="44.49223" lon="2.62482">
        <ele>431.6</ele>
        <time>2022-04-26T12:31:25Z</time>
      </trkpt>
      <trkpt lat="44.49224" lon="2.62481">
        <ele>431.6</ele>
        <time>2022-04-26T12:31:26Z</time>
      </trkpt>
      <trkpt lat="44.49225" lon="2.62482">
        <ele>431.4</ele>
        <time>2022-04-26T12:31:28Z</time>
      </trkpt>
      <trkpt lat="44.49225" lon="2.62481">
        <ele>431.2</ele>
        <time>2022-04-26T12:31:30Z</time>
      </trkpt>
      <trkpt lat="44.49229" lon="2.62479">
        <ele>431</ele>
        <time>2022-04-26T12:31:42Z</time>
      </trkpt>
      <trkpt lat="44.49231" lon="2.62476">
        <ele>430.8</ele>
        <time>2022-04-26T12:31:46Z</time>
      </trkpt>
      <trkpt lat="44.49237" lon="2.62468">
        <ele>430</ele>
        <time>2022-04-26T12:31:56Z</time>
      </trkpt>
      <trkpt lat="44.49239" lon="2.62463">
        <ele>429.2</ele>
        <time>2022-04-26T12:32:01Z</time>
      </trkpt>
      <trkpt lat="44.4924" lon="2.6246">
        <ele>428.8</ele>
        <time>2022-04-26T12:32:04Z</time>
      </trkpt>
      <trkpt lat="44.4924" lon="2.62458">
        <ele>428.2</ele>
        <time>2022-04-26T12:32:06Z</time>
      </trkpt>
      <trkpt lat="44.49243" lon="2.62454">
        <ele>427.6</ele>
        <time>2022-04-26T12:32:11Z</time>
      </trkpt>
      <trkpt lat="44.49244" lon="2.62452">
        <ele>427.6</ele>
        <time>2022-04-26T12:32:15Z</time>
      </trkpt>
      <trkpt lat="44.49251" lon="2.62451">
        <ele>427.6</ele>
        <time>2022-04-26T12:32:19Z</time>
      </trkpt>
      <trkpt lat="44.49255" lon="2.62446">
        <ele>426.6</ele>
        <time>2022-04-26T12:32:30Z</time>
      </trkpt>
      <trkpt lat="44.49257" lon="2.62443">
        <ele>426.4</ele>
        <time>2022-04-26T12:32:34Z</time>
      </trkpt>
      <trkpt lat="44.49259" lon="2.62439">
        <ele>426.2</ele>
        <time>2022-04-26T12:32:42Z</time>
      </trkpt>
      <trkpt lat="44.49257" lon="2.62438">
        <ele>426.2</ele>
        <time>2022-04-26T12:32:50Z</time>
      </trkpt>
      <trkpt lat="44.49257" lon="2.62439">
        <ele>426.4</ele>
        <time>2022-04-26T12:33:07Z</time>
      </trkpt>
      <trkpt lat="44.49258" lon="2.62435">
        <ele>426.6</ele>
        <time>2022-04-26T12:33:24Z</time>
      </trkpt>
      <trkpt lat="44.49262" lon="2.62429">
        <ele>427</ele>
        <time>2022-04-26T12:33:43Z</time>
      </trkpt>
      <trkpt lat="44.49264" lon="2.62428">
        <ele>427.6</ele>
        <time>2022-04-26T12:33:46Z</time>
      </trkpt>
      <trkpt lat="44.49269" lon="2.62423">
        <ele>428.8</ele>
        <time>2022-04-26T12:33:51Z</time>
      </trkpt>
      <trkpt lat="44.4927" lon="2.62422">
        <ele>429.2</ele>
        <time>2022-04-26T12:33:52Z</time>
      </trkpt>
      <trkpt lat="44.4927" lon="2.62422">
        <ele>429.6</ele>
        <time>2022-04-26T12:33:57Z</time>
      </trkpt>
      <trkpt lat="44.49271" lon="2.62424">
        <ele>430</ele>
        <time>2022-04-26T12:34:03Z</time>
      </trkpt>
      <trkpt lat="44.49274" lon="2.62422">
        <ele>430.2</ele>
        <time>2022-04-26T12:34:09Z</time>
      </trkpt>
      <trkpt lat="44.49274" lon="2.62422">
        <ele>431</ele>
        <time>2022-04-26T12:34:17Z</time>
      </trkpt>
      <trkpt lat="44.49277" lon="2.62417">
        <ele>431.6</ele>
        <time>2022-04-26T12:34:19Z</time>
      </trkpt>
      <trkpt lat="44.49276" lon="2.62412">
        <ele>432</ele>
        <time>2022-04-26T12:34:26Z</time>
      </trkpt>
      <trkpt lat="44.49276" lon="2.62412">
        <ele>431.8</ele>
        <time>2022-04-26T12:34:27Z</time>
      </trkpt>
      <trkpt lat="44.49279" lon="2.62404">
        <ele>431.2</ele>
        <time>2022-04-26T12:34:38Z</time>
      </trkpt>
      <trkpt lat="44.49278" lon="2.62404">
        <ele>431.2</ele>
        <time>2022-04-26T12:34:40Z</time>
      </trkpt>
      <trkpt lat="44.49283" lon="2.62396">
        <ele>431.4</ele>
        <time>2022-04-26T12:34:53Z</time>
      </trkpt>
      <trkpt lat="44.49282" lon="2.62393">
        <ele>430.6</ele>
        <time>2022-04-26T12:35:07Z</time>
      </trkpt>
      <trkpt lat="44.49282" lon="2.62389">
        <ele>430.8</ele>
        <time>2022-04-26T12:35:28Z</time>
      </trkpt>
      <trkpt lat="44.4928" lon="2.62382">
        <ele>431.8</ele>
        <time>2022-04-26T12:35:36Z</time>
      </trkpt>
      <trkpt lat="44.49279" lon="2.62379">
        <ele>432.4</ele>
        <time>2022-04-26T12:35:38Z</time>
      </trkpt>
      <trkpt lat="44.49279" lon="2.62378">
        <ele>432.6</ele>
        <time>2022-04-26T12:35:39Z</time>
      </trkpt>
      <trkpt lat="44.49278" lon="2.62376">
        <ele>433</ele>
        <time>2022-04-26T12:35:41Z</time>
      </trkpt>
      <trkpt lat="44.49277" lon="2.62374">
        <ele>433.8</ele>
        <time>2022-04-26T12:35:44Z</time>
      </trkpt>
      <trkpt lat="44.49276" lon="2.62369">
        <ele>433.8</ele>
        <time>2022-04-26T12:35:55Z</time>
      </trkpt>
      <trkpt lat="44.49279" lon="2.6236">
        <ele>434.2</ele>
        <time>2022-04-26T12:36:03Z</time>
      </trkpt>
      <trkpt lat="44.49276" lon="2.62357">
        <ele>434.4</ele>
        <time>2022-04-26T12:36:07Z</time>
      </trkpt>
      <trkpt lat="44.49275" lon="2.62356">
        <ele>434.4</ele>
        <time>2022-04-26T12:36:09Z</time>
      </trkpt>
      <trkpt lat="44.49273" lon="2.62354">
        <ele>434.4</ele>
        <time>2022-04-26T12:36:12Z</time>
      </trkpt>
      <trkpt lat="44.49271" lon="2.62353">
        <ele>434.8</ele>
        <time>2022-04-26T12:36:15Z</time>
      </trkpt>
      <trkpt lat="44.49267" lon="2.62355">
        <ele>435.6</ele>
        <time>2022-04-26T12:36:23Z</time>
      </trkpt>
      <trkpt lat="44.49266" lon="2.62354">
        <ele>435.8</ele>
        <time>2022-04-26T12:36:25Z</time>
      </trkpt>
      <trkpt lat="44.49261" lon="2.62354">
        <ele>436.6</ele>
        <time>2022-04-26T12:36:31Z</time>
      </trkpt>
      <trkpt lat="44.49259" lon="2.62354">
        <ele>437</ele>
        <time>2022-04-26T12:36:33Z</time>
      </trkpt>
      <trkpt lat="44.49255" lon="2.62355">
        <ele>437.6</ele>
        <time>2022-04-26T12:36:36Z</time>
      </trkpt>
      <trkpt lat="44.49253" lon="2.62356">
        <ele>438.2</ele>
        <time>2022-04-26T12:36:38Z</time>
      </trkpt>
      <trkpt lat="44.4925" lon="2.62357">
        <ele>439.2</ele>
        <time>2022-04-26T12:36:43Z</time>
      </trkpt>
      <trkpt lat="44.49249" lon="2.62358">
        <ele>439.6</ele>
        <time>2022-04-26T12:36:45Z</time>
      </trkpt>
      <trkpt lat="44.49248" lon="2.6236">
        <ele>440</ele>
        <time>2022-04-26T12:36:47Z</time>
      </trkpt>
      <trkpt lat="44.49247" lon="2.6236">
        <ele>439.8</ele>
        <time>2022-04-26T12:36:49Z</time>
      </trkpt>
      <trkpt lat="44.49245" lon="2.62361">
        <ele>439.8</ele>
        <time>2022-04-26T12:36:53Z</time>
      </trkpt>
      <trkpt lat="44.49237" lon="2.62366">
        <ele>439.8</ele>
        <time>2022-04-26T12:37:04Z</time>
      </trkpt>
      <trkpt lat="44.49234" lon="2.62365">
        <ele>439.8</ele>
        <time>2022-04-26T12:37:07Z</time>
      </trkpt>
      <trkpt lat="44.49228" lon="2.62367">
        <ele>440.4</ele>
        <time>2022-04-26T12:37:12Z</time>
      </trkpt>
      <trkpt lat="44.49225" lon="2.62366">
        <ele>440.8</ele>
        <time>2022-04-26T12:37:15Z</time>
      </trkpt>
      <trkpt lat="44.49222" lon="2.62365">
        <ele>441</ele>
        <time>2022-04-26T12:37:19Z</time>
      </trkpt>
      <trkpt lat="44.49222" lon="2.62365">
        <ele>441</ele>
        <time>2022-04-26T12:37:22Z</time>
      </trkpt>
      <trkpt lat="44.49223" lon="2.62365">
        <ele>441</ele>
        <time>2022-04-26T12:37:24Z</time>
      </trkpt>
      <trkpt lat="44.49224" lon="2.62363">
        <ele>441</ele>
        <time>2022-04-26T12:37:25Z</time>
      </trkpt>
      <trkpt lat="44.49226" lon="2.6236">
        <ele>440.6</ele>
        <time>2022-04-26T12:37:28Z</time>
      </trkpt>
      <trkpt lat="44.49236" lon="2.62357">
        <ele>440</ele>
        <time>2022-04-26T12:37:36Z</time>
      </trkpt>
      <trkpt lat="44.49249" lon="2.62358">
        <ele>439.8</ele>
        <time>2022-04-26T12:37:49Z</time>
      </trkpt>
      <trkpt lat="44.49251" lon="2.6236">
        <ele>439.4</ele>
        <time>2022-04-26T12:37:54Z</time>
      </trkpt>
      <trkpt lat="44.49251" lon="2.62361">
        <ele>439.4</ele>
        <time>2022-04-26T12:37:55Z</time>
      </trkpt>
      <trkpt lat="44.49252" lon="2.62361">
        <ele>439</ele>
        <time>2022-04-26T12:37:57Z</time>
      </trkpt>
      <trkpt lat="44.49254" lon="2.62363">
        <ele>438.2</ele>
        <time>2022-04-26T12:38:00Z</time>
      </trkpt>
      <trkpt lat="44.49255" lon="2.62363">
        <ele>437.8</ele>
        <time>2022-04-26T12:38:04Z</time>
      </trkpt>
      <trkpt lat="44.49255" lon="2.62363">
        <ele>437.2</ele>
        <time>2022-04-26T12:38:14Z</time>
      </trkpt>
      <trkpt lat="44.49256" lon="2.62385">
        <ele>437.4</ele>
        <time>2022-04-26T12:38:49Z</time>
      </trkpt>
      <trkpt lat="44.49254" lon="2.62372">
        <ele>437.6</ele>
        <time>2022-04-26T12:38:52Z</time>
      </trkpt>
      <trkpt lat="44.49253" lon="2.62362">
        <ele>439.2</ele>
        <time>2022-04-26T12:38:54Z</time>
      </trkpt>
      <trkpt lat="44.49254" lon="2.62358">
        <ele>439.2</ele>
        <time>2022-04-26T12:38:55Z</time>
      </trkpt>
      <trkpt lat="44.49258" lon="2.62353">
        <ele>438.8</ele>
        <time>2022-04-26T12:38:59Z</time>
      </trkpt>
      <trkpt lat="44.49259" lon="2.62354">
        <ele>438.6</ele>
        <time>2022-04-26T12:39:00Z</time>
      </trkpt>
      <trkpt lat="44.49259" lon="2.62354">
        <ele>436.8</ele>
        <time>2022-04-26T12:39:01Z</time>
      </trkpt>
      <trkpt lat="44.49261" lon="2.62353">
        <ele>436.8</ele>
        <time>2022-04-26T12:39:02Z</time>
      </trkpt>
      <trkpt lat="44.4926" lon="2.62349">
        <ele>436</ele>
        <time>2022-04-26T12:39:11Z</time>
      </trkpt>
      <trkpt lat="44.49259" lon="2.62348">
        <ele>435.6</ele>
        <time>2022-04-26T12:39:16Z</time>
      </trkpt>
      <trkpt lat="44.49261" lon="2.62348">
        <ele>435.4</ele>
        <time>2022-04-26T12:39:25Z</time>
      </trkpt>
      <trkpt lat="44.49261" lon="2.62352">
        <ele>436.8</ele>
        <time>2022-04-26T12:39:43Z</time>
      </trkpt>
      <trkpt lat="44.49261" lon="2.62353">
        <ele>436.8</ele>
        <time>2022-04-26T12:39:45Z</time>
      </trkpt>
      <trkpt lat="44.49257" lon="2.62348">
        <ele>435.6</ele>
        <time>2022-04-26T12:39:54Z</time>
      </trkpt>
      <trkpt lat="44.49255" lon="2.62348">
        <ele>435.4</ele>
        <time>2022-04-26T12:39:56Z</time>
      </trkpt>
      <trkpt lat="44.49249" lon="2.62347">
        <ele>435</ele>
        <time>2022-04-26T12:40:03Z</time>
      </trkpt>
      <trkpt lat="44.49241" lon="2.62346">
        <ele>435.4</ele>
        <time>2022-04-26T12:40:12Z</time>
      </trkpt>
      <trkpt lat="44.4924" lon="2.62346">
        <ele>435.6</ele>
        <time>2022-04-26T12:40:13Z</time>
      </trkpt>
      <trkpt lat="44.49238" lon="2.62348">
        <ele>435.8</ele>
        <time>2022-04-26T12:40:17Z</time>
      </trkpt>
      <trkpt lat="44.49237" lon="2.62349">
        <ele>436.6</ele>
        <time>2022-04-26T12:40:20Z</time>
      </trkpt>
      <trkpt lat="44.49237" lon="2.6235">
        <ele>436.8</ele>
        <time>2022-04-26T12:40:21Z</time>
      </trkpt>
      <trkpt lat="44.49234" lon="2.62355">
        <ele>437.6</ele>
        <time>2022-04-26T12:40:25Z</time>
      </trkpt>
      <trkpt lat="44.49234" lon="2.62356">
        <ele>437.8</ele>
        <time>2022-04-26T12:40:26Z</time>
      </trkpt>
      <trkpt lat="44.49232" lon="2.62356">
        <ele>438.2</ele>
        <time>2022-04-26T12:40:28Z</time>
      </trkpt>
      <trkpt lat="44.49229" lon="2.62354">
        <ele>438.6</ele>
        <time>2022-04-26T12:40:31Z</time>
      </trkpt>
      <trkpt lat="44.49227" lon="2.62353">
        <ele>439</ele>
        <time>2022-04-26T12:40:33Z</time>
      </trkpt>
      <trkpt lat="44.49227" lon="2.62354">
        <ele>439.4</ele>
        <time>2022-04-26T12:40:35Z</time>
      </trkpt>
      <trkpt lat="44.49226" lon="2.62355">
        <ele>439.6</ele>
        <time>2022-04-26T12:40:37Z</time>
      </trkpt>
      <trkpt lat="44.49224" lon="2.62358">
        <ele>440</ele>
        <time>2022-04-26T12:40:40Z</time>
      </trkpt>
      <trkpt lat="44.49221" lon="2.6236">
        <ele>440.4</ele>
        <time>2022-04-26T12:40:43Z</time>
      </trkpt>
      <trkpt lat="44.4922" lon="2.62362">
        <ele>441</ele>
        <time>2022-04-26T12:40:46Z</time>
      </trkpt>
      <trkpt lat="44.49219" lon="2.62364">
        <ele>442</ele>
        <time>2022-04-26T12:40:50Z</time>
      </trkpt>
      <trkpt lat="44.49219" lon="2.62365">
        <ele>442.4</ele>
        <time>2022-04-26T12:40:51Z</time>
      </trkpt>
      <trkpt lat="44.49217" lon="2.62368">
        <ele>443.2</ele>
        <time>2022-04-26T12:40:56Z</time>
      </trkpt>
      <trkpt lat="44.49215" lon="2.62368">
        <ele>443.8</ele>
        <time>2022-04-26T12:41:02Z</time>
      </trkpt>
      <trkpt lat="44.49209" lon="2.62373">
        <ele>444.2</ele>
        <time>2022-04-26T12:41:14Z</time>
      </trkpt>
      <trkpt lat="44.49208" lon="2.62374">
        <ele>444.4</ele>
        <time>2022-04-26T12:41:15Z</time>
      </trkpt>
      <trkpt lat="44.49207" lon="2.62375">
        <ele>444.4</ele>
        <time>2022-04-26T12:41:16Z</time>
      </trkpt>
      <trkpt lat="44.49203" lon="2.62382">
        <ele>445</ele>
        <time>2022-04-26T12:41:22Z</time>
      </trkpt>
      <trkpt lat="44.492" lon="2.62386">
        <ele>444.6</ele>
        <time>2022-04-26T12:41:29Z</time>
      </trkpt>
      <trkpt lat="44.49202" lon="2.62387">
        <ele>444.8</ele>
        <time>2022-04-26T12:41:43Z</time>
      </trkpt>
      <trkpt lat="44.49204" lon="2.62386">
        <ele>444.4</ele>
        <time>2022-04-26T12:41:58Z</time>
      </trkpt>
      <trkpt lat="44.49198" lon="2.62389">
        <ele>443.4</ele>
        <time>2022-04-26T12:42:06Z</time>
      </trkpt>
      <trkpt lat="44.49197" lon="2.62389">
        <ele>443.2</ele>
        <time>2022-04-26T12:42:07Z</time>
      </trkpt>
      <trkpt lat="44.49196" lon="2.62389">
        <ele>442.6</ele>
        <time>2022-04-26T12:42:09Z</time>
      </trkpt>
      <trkpt lat="44.49194" lon="2.6239">
        <ele>442</ele>
        <time>2022-04-26T12:42:11Z</time>
      </trkpt>
      <trkpt lat="44.49193" lon="2.62391">
        <ele>441.8</ele>
        <time>2022-04-26T12:42:12Z</time>
      </trkpt>
      <trkpt lat="44.49192" lon="2.62391">
        <ele>441.6</ele>
        <time>2022-04-26T12:42:13Z</time>
      </trkpt>
      <trkpt lat="44.49187" lon="2.62396">
        <ele>441</ele>
        <time>2022-04-26T12:42:17Z</time>
      </trkpt>
      <trkpt lat="44.49181" lon="2.62401">
        <ele>440</ele>
        <time>2022-04-26T12:42:22Z</time>
      </trkpt>
      <trkpt lat="44.49177" lon="2.62402">
        <ele>439.6</ele>
        <time>2022-04-26T12:42:26Z</time>
      </trkpt>
      <trkpt lat="44.4917" lon="2.62405">
        <ele>439</ele>
        <time>2022-04-26T12:42:32Z</time>
      </trkpt>
      <trkpt lat="44.49165" lon="2.62411">
        <ele>438</ele>
        <time>2022-04-26T12:42:39Z</time>
      </trkpt>
      <trkpt lat="44.49161" lon="2.6242">
        <ele>438</ele>
        <time>2022-04-26T12:42:50Z</time>
      </trkpt>
      <trkpt lat="44.49164" lon="2.62425">
        <ele>437.8</ele>
        <time>2022-04-26T12:43:05Z</time>
      </trkpt>
      <trkpt lat="44.49165" lon="2.62422">
        <ele>438.2</ele>
        <time>2022-04-26T12:43:21Z</time>
      </trkpt>
      <trkpt lat="44.49163" lon="2.62428">
        <ele>437.8</ele>
        <time>2022-04-26T12:43:36Z</time>
      </trkpt>
      <trkpt lat="44.49162" lon="2.6243">
        <ele>437.8</ele>
        <time>2022-04-26T12:43:38Z</time>
      </trkpt>
      <trkpt lat="44.49161" lon="2.62432">
        <ele>437.8</ele>
        <time>2022-04-26T12:43:40Z</time>
      </trkpt>
      <trkpt lat="44.49158" lon="2.62439">
        <ele>438</ele>
        <time>2022-04-26T12:43:51Z</time>
      </trkpt>
      <trkpt lat="44.49153" lon="2.62448">
        <ele>437.2</ele>
        <time>2022-04-26T12:44:02Z</time>
      </trkpt>
      <trkpt lat="44.49151" lon="2.62452">
        <ele>436.8</ele>
        <time>2022-04-26T12:44:06Z</time>
      </trkpt>
      <trkpt lat="44.49148" lon="2.62456">
        <ele>435.8</ele>
        <time>2022-04-26T12:44:11Z</time>
      </trkpt>
      <trkpt lat="44.49145" lon="2.62462">
        <ele>435.2</ele>
        <time>2022-04-26T12:44:17Z</time>
      </trkpt>
      <trkpt lat="44.49142" lon="2.62466">
        <ele>434.8</ele>
        <time>2022-04-26T12:44:22Z</time>
      </trkpt>
      <trkpt lat="44.49135" lon="2.62475">
        <ele>434.2</ele>
        <time>2022-04-26T12:44:33Z</time>
      </trkpt>
      <trkpt lat="44.49125" lon="2.6249">
        <ele>434.2</ele>
        <time>2022-04-26T12:44:47Z</time>
      </trkpt>
      <trkpt lat="44.49118" lon="2.62513">
        <ele>435.6</ele>
        <time>2022-04-26T12:45:03Z</time>
      </trkpt>
      <trkpt lat="44.49117" lon="2.62515">
        <ele>435.6</ele>
        <time>2022-04-26T12:45:04Z</time>
      </trkpt>
      <trkpt lat="44.49117" lon="2.62516">
        <ele>435.8</ele>
        <time>2022-04-26T12:45:05Z</time>
      </trkpt>
      <trkpt lat="44.49107" lon="2.6253">
        <ele>435.6</ele>
        <time>2022-04-26T12:45:19Z</time>
      </trkpt>
      <trkpt lat="44.49101" lon="2.62538">
        <ele>435.8</ele>
        <time>2022-04-26T12:45:30Z</time>
      </trkpt>
      <trkpt lat="44.49101" lon="2.62539">
        <ele>435.8</ele>
        <time>2022-04-26T12:45:33Z</time>
      </trkpt>
      <trkpt lat="44.49102" lon="2.62539">
        <ele>436.6</ele>
        <time>2022-04-26T12:45:45Z</time>
      </trkpt>
      <trkpt lat="44.491" lon="2.62541">
        <ele>436.6</ele>
        <time>2022-04-26T12:46:00Z</time>
      </trkpt>
      <trkpt lat="44.49097" lon="2.62547">
        <ele>436.6</ele>
        <time>2022-04-26T12:46:11Z</time>
      </trkpt>
      <trkpt lat="44.49095" lon="2.62554">
        <ele>436.6</ele>
        <time>2022-04-26T12:46:18Z</time>
      </trkpt>
      <trkpt lat="44.49092" lon="2.62562">
        <ele>436.6</ele>
        <time>2022-04-26T12:46:24Z</time>
      </trkpt>
      <trkpt lat="44.49091" lon="2.62565">
        <ele>436.8</ele>
        <time>2022-04-26T12:46:26Z</time>
      </trkpt>
      <trkpt lat="44.49089" lon="2.62568">
        <ele>437.6</ele>
        <time>2022-04-26T12:46:30Z</time>
      </trkpt>
      <trkpt lat="44.49089" lon="2.6257">
        <ele>437.8</ele>
        <time>2022-04-26T12:46:34Z</time>
      </trkpt>
      <trkpt lat="44.49087" lon="2.62573">
        <ele>438</ele>
        <time>2022-04-26T12:46:37Z</time>
      </trkpt>
      <trkpt lat="44.49085" lon="2.62574">
        <ele>438</ele>
        <time>2022-04-26T12:46:40Z</time>
      </trkpt>
      <trkpt lat="44.49084" lon="2.62577">
        <ele>438.2</ele>
        <time>2022-04-26T12:46:43Z</time>
      </trkpt>
      <trkpt lat="44.49084" lon="2.62585">
        <ele>438.6</ele>
        <time>2022-04-26T12:46:49Z</time>
      </trkpt>
      <trkpt lat="44.4908" lon="2.62599">
        <ele>439</ele>
        <time>2022-04-26T12:47:00Z</time>
      </trkpt>
      <trkpt lat="44.49077" lon="2.62608">
        <ele>439.4</ele>
        <time>2022-04-26T12:47:09Z</time>
      </trkpt>
      <trkpt lat="44.49077" lon="2.62609">
        <ele>439.4</ele>
        <time>2022-04-26T12:47:10Z</time>
      </trkpt>
      <trkpt lat="44.49076" lon="2.62613">
        <ele>439.4</ele>
        <time>2022-04-26T12:47:13Z</time>
      </trkpt>
      <trkpt lat="44.49076" lon="2.62618">
        <ele>440</ele>
        <time>2022-04-26T12:47:18Z</time>
      </trkpt>
      <trkpt lat="44.49076" lon="2.62619">
        <ele>440</ele>
        <time>2022-04-26T12:47:19Z</time>
      </trkpt>
      <trkpt lat="44.49076" lon="2.6262">
        <ele>440</ele>
        <time>2022-04-26T12:47:20Z</time>
      </trkpt>
      <trkpt lat="44.49076" lon="2.6262">
        <ele>440</ele>
        <time>2022-04-26T12:47:21Z</time>
      </trkpt>
      <trkpt lat="44.49076" lon="2.62621">
        <ele>440.2</ele>
        <time>2022-04-26T12:47:23Z</time>
      </trkpt>
      <trkpt lat="44.49073" lon="2.62632">
        <ele>440.6</ele>
        <time>2022-04-26T12:47:34Z</time>
      </trkpt>
      <trkpt lat="44.49071" lon="2.62635">
        <ele>441.2</ele>
        <time>2022-04-26T12:47:38Z</time>
      </trkpt>
      <trkpt lat="44.4907" lon="2.6264">
        <ele>442.2</ele>
        <time>2022-04-26T12:47:44Z</time>
      </trkpt>
      <trkpt lat="44.49066" lon="2.62643">
        <ele>443.2</ele>
        <time>2022-04-26T12:47:48Z</time>
      </trkpt>
      <trkpt lat="44.49065" lon="2.62644">
        <ele>443.4</ele>
        <time>2022-04-26T12:47:49Z</time>
      </trkpt>
      <trkpt lat="44.49061" lon="2.62651">
        <ele>444.4</ele>
        <time>2022-04-26T12:47:57Z</time>
      </trkpt>
      <trkpt lat="44.49061" lon="2.62654">
        <ele>444.4</ele>
        <time>2022-04-26T12:47:59Z</time>
      </trkpt>
      <trkpt lat="44.4906" lon="2.62658">
        <ele>445</ele>
        <time>2022-04-26T12:48:09Z</time>
      </trkpt>
      <trkpt lat="44.49052" lon="2.62663">
        <ele>444</ele>
        <time>2022-04-26T12:48:20Z</time>
      </trkpt>
      <trkpt lat="44.49049" lon="2.62666">
        <ele>443.6</ele>
        <time>2022-04-26T12:48:24Z</time>
      </trkpt>
      <trkpt lat="44.49048" lon="2.62667">
        <ele>443.4</ele>
        <time>2022-04-26T12:48:25Z</time>
      </trkpt>
      <trkpt lat="44.4904" lon="2.62672">
        <ele>443</ele>
        <time>2022-04-26T12:48:34Z</time>
      </trkpt>
      <trkpt lat="44.49033" lon="2.62677">
        <ele>442.2</ele>
        <time>2022-04-26T12:48:42Z</time>
      </trkpt>
      <trkpt lat="44.49032" lon="2.62678">
        <ele>442</ele>
        <time>2022-04-26T12:48:45Z</time>
      </trkpt>
      <trkpt lat="44.49032" lon="2.62678">
        <ele>442</ele>
        <time>2022-04-26T12:48:47Z</time>
      </trkpt>
      <trkpt lat="44.49025" lon="2.62684">
        <ele>441.4</ele>
        <time>2022-04-26T12:48:57Z</time>
      </trkpt>
      <trkpt lat="44.49013" lon="2.62696">
        <ele>441.4</ele>
        <time>2022-04-26T12:49:10Z</time>
      </trkpt>
      <trkpt lat="44.4901" lon="2.62698">
        <ele>441.2</ele>
        <time>2022-04-26T12:49:13Z</time>
      </trkpt>
      <trkpt lat="44.49004" lon="2.62704">
        <ele>440.2</ele>
        <time>2022-04-26T12:49:23Z</time>
      </trkpt>
      <trkpt lat="44.49003" lon="2.62705">
        <ele>440.2</ele>
        <time>2022-04-26T12:49:24Z</time>
      </trkpt>
      <trkpt lat="44.48992" lon="2.62711">
        <ele>440.4</ele>
        <time>2022-04-26T12:49:38Z</time>
      </trkpt>
      <trkpt lat="44.48974" lon="2.62719">
        <ele>440</ele>
        <time>2022-04-26T12:49:52Z</time>
      </trkpt>
      <trkpt lat="44.48971" lon="2.62722">
        <ele>440</ele>
        <time>2022-04-26T12:49:55Z</time>
      </trkpt>
      <trkpt lat="44.48958" lon="2.6273">
        <ele>440.8</ele>
        <time>2022-04-26T12:50:09Z</time>
      </trkpt>
      <trkpt lat="44.48948" lon="2.62735">
        <ele>441.2</ele>
        <time>2022-04-26T12:50:19Z</time>
      </trkpt>
      <trkpt lat="44.48944" lon="2.62738">
        <ele>441.6</ele>
        <time>2022-04-26T12:50:24Z</time>
      </trkpt>
      <trkpt lat="44.48932" lon="2.62747">
        <ele>442.4</ele>
        <time>2022-04-26T12:50:36Z</time>
      </trkpt>
      <trkpt lat="44.48929" lon="2.62749">
        <ele>442.6</ele>
        <time>2022-04-26T12:50:39Z</time>
      </trkpt>
      <trkpt lat="44.48916" lon="2.62757">
        <ele>443.2</ele>
        <time>2022-04-26T12:50:52Z</time>
      </trkpt>
      <trkpt lat="44.48911" lon="2.62765">
        <ele>443.4</ele>
        <time>2022-04-26T12:51:02Z</time>
      </trkpt>
      <trkpt lat="44.4891" lon="2.6277">
        <ele>443.8</ele>
        <time>2022-04-26T12:51:06Z</time>
      </trkpt>
      <trkpt lat="44.4891" lon="2.62772">
        <ele>443.8</ele>
        <time>2022-04-26T12:51:07Z</time>
      </trkpt>
      <trkpt lat="44.48904" lon="2.62788">
        <ele>443.2</ele>
        <time>2022-04-26T12:51:18Z</time>
      </trkpt>
      <trkpt lat="44.489" lon="2.62788">
        <ele>443.2</ele>
        <time>2022-04-26T12:51:24Z</time>
      </trkpt>
      <trkpt lat="44.489" lon="2.62788">
        <ele>443.2</ele>
        <time>2022-04-26T12:51:27Z</time>
      </trkpt>
      <trkpt lat="44.48896" lon="2.62787">
        <ele>442.8</ele>
        <time>2022-04-26T12:51:38Z</time>
      </trkpt>
      <trkpt lat="44.48895" lon="2.62788">
        <ele>442.8</ele>
        <time>2022-04-26T12:51:47Z</time>
      </trkpt>
      <trkpt lat="44.48895" lon="2.62786">
        <ele>442.8</ele>
        <time>2022-04-26T12:52:07Z</time>
      </trkpt>
      <trkpt lat="44.48892" lon="2.62785">
        <ele>442.8</ele>
        <time>2022-04-26T12:52:18Z</time>
      </trkpt>
      <trkpt lat="44.48891" lon="2.62783">
        <ele>442.8</ele>
        <time>2022-04-26T12:52:34Z</time>
      </trkpt>
      <trkpt lat="44.48889" lon="2.62787">
        <ele>442.8</ele>
        <time>2022-04-26T12:52:46Z</time>
      </trkpt>
      <trkpt lat="44.48888" lon="2.62788">
        <ele>442.8</ele>
        <time>2022-04-26T12:52:48Z</time>
      </trkpt>
      <trkpt lat="44.4889" lon="2.62787">
        <ele>442.8</ele>
        <time>2022-04-26T12:53:07Z</time>
      </trkpt>
      <trkpt lat="44.48891" lon="2.62785">
        <ele>442.8</ele>
        <time>2022-04-26T12:53:24Z</time>
      </trkpt>
      <trkpt lat="44.4889" lon="2.62783">
        <ele>442.8</ele>
        <time>2022-04-26T12:53:30Z</time>
      </trkpt>
    </trkseg>
  </trk>
</gpx>